createdAt,value
2019-02-09T00:00:31.197Z,99314.00
2019-02-09T00:03:05.742Z,99304.00
2019-02-09T00:05:38.607Z,99306.00
2019-02-09T00:08:11.631Z,99315.00
2019-02-09T00:10:44.515Z,99307.00
2019-02-09T00:13:17.370Z,99298.00
2019-02-09T00:15:50.233Z,99294.00
2019-02-09T00:18:23.064Z,99291.00
2019-02-09T00:20:55.935Z,99286.00
2019-02-09T00:23:28.759Z,99286.00
2019-02-09T00:26:01.561Z,99281.00
2019-02-09T00:28:34.394Z,99277.00
2019-02-09T00:31:07.323Z,99257.00
2019-02-09T00:33:40.112Z,99262.00
2019-02-09T00:36:12.958Z,99266.00
2019-02-09T00:38:45.820Z,99266.00
2019-02-09T00:41:18.643Z,99257.00
2019-02-09T00:43:51.481Z,99249.00
2019-02-09T00:46:24.318Z,99244.00
2019-02-09T00:48:57.194Z,99239.00
2019-02-09T00:51:29.997Z,99241.00
2019-02-09T00:54:03.070Z,99221.00
2019-02-09T00:56:36.329Z,99220.00
2019-02-09T00:59:09.227Z,99226.00
2019-02-09T01:01:42.039Z,99220.00
2019-02-09T01:04:14.872Z,99224.00
2019-02-09T01:06:47.657Z,99223.00
2019-02-09T01:09:20.587Z,99223.00
2019-02-09T01:11:53.397Z,99221.00
2019-02-09T01:14:26.228Z,99226.00
2019-02-09T01:16:59.055Z,99233.00
2019-02-09T01:19:31.954Z,99229.00
2019-02-09T01:22:04.978Z,99235.00
2019-02-09T01:24:37.823Z,99231.00
2019-02-09T01:27:11.736Z,99226.00
2019-02-09T01:29:44.692Z,99226.00
2019-02-09T01:32:17.514Z,99235.00
2019-02-09T01:34:50.306Z,99234.00
2019-02-09T01:37:23.134Z,99249.00
2019-02-09T01:39:55.987Z,99243.00
2019-02-09T01:42:28.770Z,99245.00
2019-02-09T01:45:01.754Z,99254.00
2019-02-09T01:47:34.551Z,99259.00
2019-02-09T01:50:10.285Z,99262.00
2019-02-09T01:52:43.070Z,99255.00
2019-02-09T01:55:17.507Z,99265.00
2019-02-09T01:57:50.718Z,99260.00
2019-02-09T02:00:31.883Z,99252.00
2019-02-09T02:03:05.289Z,99261.00
2019-02-09T02:05:38.079Z,99248.00
2019-02-09T02:08:12.579Z,99247.00
2019-02-09T02:10:45.413Z,99238.00
2019-02-09T02:13:18.277Z,99233.00
2019-02-09T02:15:51.188Z,99231.00
2019-02-09T02:18:23.996Z,99220.00
2019-02-09T02:20:57.031Z,99213.00
2019-02-09T02:23:29.827Z,99202.00
2019-02-09T02:26:02.873Z,99204.00
2019-02-09T02:28:35.699Z,99196.00
2019-02-09T02:31:08.498Z,99188.00
2019-02-09T02:33:41.299Z,99198.00
2019-02-09T02:36:14.106Z,99201.00
2019-02-09T02:38:46.909Z,99195.00
2019-02-09T02:41:19.752Z,99173.00
2019-02-09T02:43:52.615Z,99164.00
2019-02-09T02:46:25.443Z,99176.00
2019-02-09T02:48:58.280Z,99170.00
2019-02-09T02:51:31.105Z,99166.00
2019-02-09T02:54:03.929Z,99166.00
2019-02-09T02:56:36.736Z,99164.00
2019-02-09T02:59:09.616Z,99158.00
2019-02-09T03:01:42.427Z,99150.00
2019-02-09T03:04:15.251Z,99115.00
2019-02-09T03:06:48.117Z,99106.00
2019-02-09T03:09:20.896Z,99113.00
2019-02-09T03:11:53.716Z,99117.00
2019-02-09T03:14:26.521Z,99105.00
2019-02-09T03:16:59.339Z,99117.00
2019-02-09T03:19:32.131Z,99132.00
2019-02-09T03:22:04.903Z,99145.00
2019-02-09T03:24:37.704Z,99145.00
2019-02-09T03:27:10.531Z,99138.00
2019-02-09T03:29:43.341Z,99141.00
2019-02-09T03:32:16.333Z,99138.00
2019-02-09T03:34:49.166Z,99156.00
2019-02-09T03:37:21.987Z,99160.00
2019-02-09T03:39:54.814Z,99168.00
2019-02-09T03:42:27.631Z,99170.00
2019-02-09T03:45:00.447Z,99164.00
2019-02-09T03:47:33.263Z,99172.00
2019-02-09T03:50:08.484Z,99171.00
2019-02-09T03:52:41.305Z,99168.00
2019-02-09T03:55:14.090Z,99159.00
2019-02-09T03:57:46.876Z,99161.00
2019-02-09T04:00:22.498Z,99164.00
2019-02-09T04:02:55.799Z,99168.00
2019-02-09T04:05:28.605Z,99173.00
2019-02-09T04:08:01.604Z,99181.00
2019-02-09T04:10:34.348Z,99169.00
2019-02-09T04:13:07.151Z,99166.00
2019-02-09T04:15:39.992Z,99163.00
2019-02-09T04:18:12.844Z,99161.00
2019-02-09T04:20:45.650Z,99163.00
2019-02-09T04:23:18.480Z,99167.00
2019-02-09T04:25:51.291Z,99178.00
2019-02-09T04:28:24.155Z,99187.00
2019-02-09T04:31:05.260Z,99193.00
2019-02-09T04:33:31.708Z,99205.00
2019-02-09T04:36:04.531Z,99209.00
2019-02-09T04:38:37.364Z,99216.00
2019-02-09T04:41:10.180Z,99209.00
2019-02-09T04:43:43.024Z,99214.00
2019-02-09T04:46:15.830Z,99223.00
2019-02-09T04:48:48.662Z,99215.00
2019-02-09T04:51:21.441Z,99223.00
2019-02-09T04:53:54.403Z,99228.00
2019-02-09T04:56:27.212Z,99226.00
2019-02-09T04:59:00.050Z,99223.00
2019-02-09T05:01:32.832Z,99226.00
2019-02-09T05:04:05.675Z,99239.00
2019-02-09T05:06:38.496Z,99233.00
2019-02-09T05:09:11.290Z,99237.00
2019-02-09T05:11:44.091Z,99233.00
2019-02-09T05:14:16.915Z,99239.00
2019-02-09T05:16:49.769Z,99236.00
2019-02-09T05:19:22.596Z,99231.00
2019-02-09T05:21:55.426Z,99228.00
2019-02-09T05:24:28.227Z,99254.00
2019-02-09T05:27:01.043Z,99263.00
2019-02-09T05:29:33.912Z,99266.00
2019-02-09T05:32:06.714Z,99272.00
2019-02-09T05:34:39.543Z,99293.00
2019-02-09T05:37:12.360Z,99285.00
2019-02-09T05:39:45.395Z,99280.00
2019-02-09T05:42:18.203Z,99292.00
2019-02-09T05:44:51.002Z,99297.00
2019-02-09T05:47:23.798Z,99311.00
2019-02-09T05:49:56.667Z,99310.00
2019-02-09T05:52:29.447Z,99311.00
2019-02-09T05:55:02.460Z,99309.00
2019-02-09T05:57:35.250Z,99306.00
2019-02-09T06:00:17.332Z,99327.00
2019-02-09T06:02:50.482Z,99326.00
2019-02-09T06:05:23.383Z,99329.00
2019-02-09T06:07:56.228Z,99330.00
2019-02-09T06:10:29.087Z,99331.00
2019-02-09T06:13:02.008Z,99338.00
2019-02-09T06:15:34.816Z,99340.00
2019-02-09T06:18:07.641Z,99349.00
2019-02-09T06:20:40.440Z,99360.00
2019-02-09T06:23:13.251Z,99361.00
2019-02-09T06:25:47.088Z,99367.00
2019-02-09T06:28:19.912Z,99370.00
2019-02-09T06:30:52.751Z,99371.00
2019-02-09T06:33:25.573Z,99370.00
2019-02-09T06:35:58.411Z,99374.00
2019-02-09T06:38:31.217Z,99368.00
2019-02-09T06:41:04.232Z,99380.00
2019-02-09T06:43:37.101Z,99379.00
2019-02-09T06:46:09.889Z,99373.00
2019-02-09T06:48:42.985Z,99377.00
2019-02-09T06:51:15.832Z,99381.00
2019-02-09T06:53:48.689Z,99375.00
2019-02-09T06:56:21.467Z,99377.00
2019-02-09T06:58:54.323Z,99386.00
2019-02-09T07:01:27.143Z,99378.00
2019-02-09T07:03:59.986Z,99380.00
2019-02-09T07:06:32.829Z,99385.00
2019-02-09T07:09:08.420Z,99382.00
2019-02-09T07:11:41.216Z,99373.00
2019-02-09T07:14:14.226Z,99384.00
2019-02-09T07:16:47.049Z,99380.00
2019-02-09T07:19:20.191Z,99384.00
2019-02-09T07:21:52.994Z,99376.00
2019-02-09T07:24:25.856Z,99390.00
2019-02-09T07:26:58.635Z,99403.00
2019-02-09T07:29:31.503Z,99400.00
2019-02-09T07:32:04.775Z,99410.00
2019-02-09T07:34:37.647Z,99421.00
2019-02-09T07:37:10.458Z,99421.00
2019-02-09T07:39:43.278Z,99431.00
2019-02-09T07:42:16.111Z,99441.00
2019-02-09T07:44:49.033Z,99446.00
2019-02-09T07:47:21.872Z,99450.00
2019-02-09T07:49:54.763Z,99456.00
2019-02-09T07:52:27.549Z,99459.00
2019-02-09T07:55:00.438Z,99462.00
2019-02-09T07:57:33.213Z,99465.00
2019-02-09T08:00:14.385Z,99468.00
2019-02-09T08:02:47.092Z,99472.00
2019-02-09T08:05:22.015Z,99482.00
2019-02-09T08:07:55.802Z,99486.00
2019-02-09T08:10:31.283Z,99494.00
2019-02-09T08:13:05.249Z,99497.00
2019-02-09T08:15:38.322Z,99495.00
2019-02-09T08:18:11.039Z,99495.00
2019-02-09T08:20:43.796Z,99504.00
2019-02-09T08:23:16.504Z,99508.00
2019-02-09T08:25:49.359Z,99500.00
2019-02-09T08:28:22.197Z,99518.00
2019-02-09T08:30:55.140Z,99511.00
2019-02-09T08:33:27.994Z,99520.00
2019-02-09T08:36:00.850Z,99531.00
2019-02-09T08:38:33.662Z,99534.00
2019-02-09T08:41:06.513Z,99533.00
2019-02-09T08:43:39.345Z,99540.00
2019-02-09T08:46:12.174Z,99544.00
2019-02-09T08:48:46.143Z,99540.00
2019-02-09T08:51:20.076Z,99544.00
2019-02-09T08:53:53.129Z,99549.00
2019-02-09T08:56:25.979Z,99542.00
2019-02-09T08:58:58.824Z,99543.00
2019-02-09T09:01:31.707Z,99533.00
2019-02-09T09:04:05.031Z,99536.00
2019-02-09T09:06:37.976Z,99543.00
2019-02-09T09:09:11.113Z,99545.00
2019-02-09T09:11:43.940Z,99545.00
2019-02-09T09:14:16.847Z,99547.00
2019-02-09T09:16:49.708Z,99554.00
2019-02-09T09:19:22.536Z,99544.00
2019-02-09T09:21:55.434Z,99555.00
2019-02-09T09:24:28.483Z,99560.00
2019-02-09T09:27:01.260Z,99573.00
2019-02-09T09:29:34.110Z,99582.00
2019-02-09T09:32:06.911Z,99579.00
2019-02-09T09:34:39.819Z,99577.00
2019-02-09T09:37:12.680Z,99576.00
2019-02-09T09:39:45.526Z,99576.00
2019-02-09T09:42:18.384Z,99576.00
2019-02-09T09:44:51.228Z,99575.00
2019-02-09T09:47:25.128Z,99579.00
2019-02-09T09:49:58.024Z,99588.00
2019-02-09T09:52:30.842Z,99582.00
2019-02-09T09:55:04.396Z,99588.00
2019-02-09T09:57:37.395Z,99598.00
2019-02-09T10:00:12.931Z,99594.00
2019-02-09T10:02:45.806Z,99594.00
2019-02-09T10:05:18.976Z,99601.00
2019-02-09T10:07:52.012Z,99599.00
2019-02-09T10:10:25.047Z,99609.00
2019-02-09T10:12:57.880Z,99606.00
2019-02-09T10:15:30.585Z,99599.00
2019-02-09T10:18:04.536Z,99594.00
2019-02-09T10:20:37.287Z,99597.00
2019-02-09T10:23:09.998Z,99603.00
2019-02-09T10:25:42.803Z,99606.00
2019-02-09T10:28:15.510Z,99606.00
2019-02-09T10:30:48.442Z,99615.00
2019-02-09T10:33:21.227Z,99604.00
2019-02-09T10:35:54.035Z,99616.00
2019-02-09T10:38:27.924Z,99609.00
2019-02-09T10:41:00.687Z,99599.00
2019-02-09T10:43:33.436Z,99601.00
2019-02-09T10:46:06.169Z,99598.00
2019-02-09T10:48:39.033Z,99605.00
2019-02-09T10:51:11.794Z,99609.00
2019-02-09T10:53:44.590Z,99606.00
2019-02-09T10:56:17.433Z,99603.00
2019-02-09T10:58:50.206Z,99609.00
2019-02-09T11:01:23.022Z,99612.00
2019-02-09T11:03:55.797Z,99615.00
2019-02-09T11:06:28.649Z,99615.00
2019-02-09T11:09:01.416Z,99618.00
2019-02-09T11:11:34.182Z,99634.00
2019-02-09T11:14:06.905Z,99631.00
2019-02-09T11:16:39.663Z,99630.00
2019-02-09T11:19:12.456Z,99628.00
2019-02-09T11:21:45.213Z,99631.00
2019-02-09T11:24:17.834Z,99645.00
2019-02-09T11:26:50.615Z,99642.00
2019-02-09T11:29:35.659Z,99632.00
2019-02-09T11:32:08.461Z,99629.00
2019-02-09T11:34:41.208Z,99623.00
2019-02-09T11:37:13.970Z,99633.00
2019-02-09T11:39:46.877Z,99638.00
2019-02-09T11:42:19.731Z,99617.00
2019-02-09T11:44:52.567Z,99631.00
2019-02-09T11:47:25.426Z,99638.00
2019-02-09T11:49:58.523Z,99635.00
2019-02-09T11:52:31.594Z,99618.00
2019-02-09T11:55:05.432Z,99622.00
2019-02-09T11:57:38.184Z,99628.00
2019-02-09T12:00:26.402Z,99633.00
2019-02-09T12:03:04.049Z,99626.00
2019-02-09T12:05:33.783Z,99625.00
2019-02-09T12:08:07.621Z,99624.00
2019-02-09T12:10:40.374Z,99625.00
2019-02-09T12:13:14.181Z,99617.00
2019-02-09T12:15:46.949Z,99631.00
2019-02-09T12:18:19.749Z,99627.00
2019-02-09T12:20:52.511Z,99635.00
2019-02-09T12:23:25.253Z,99636.00
2019-02-09T12:25:58.002Z,99628.00
2019-02-09T12:28:30.655Z,99636.00
2019-02-09T12:31:03.527Z,99633.00
2019-02-09T12:33:36.239Z,99634.00
2019-02-09T12:36:09.100Z,99637.00
2019-02-09T12:38:42.826Z,99641.00
2019-02-09T12:41:15.668Z,99635.00
2019-02-09T12:43:48.403Z,99631.00
2019-02-09T12:46:21.162Z,99629.00
2019-02-09T12:48:53.881Z,99622.00
2019-02-09T12:51:26.622Z,99621.00
2019-02-09T12:53:59.247Z,99622.00
2019-02-09T12:56:32.033Z,99621.00
2019-02-09T12:59:04.776Z,99604.00
2019-02-09T13:01:37.685Z,99608.00
2019-02-09T13:04:10.555Z,99612.00
2019-02-09T13:06:43.587Z,99616.00
2019-02-09T13:09:16.443Z,99626.00
2019-02-09T13:11:49.319Z,99629.00
2019-02-09T13:14:23.762Z,99631.00
2019-02-09T13:16:56.809Z,99630.00
2019-02-09T13:19:29.613Z,99628.00
2019-02-09T13:22:02.608Z,99615.00
2019-02-09T13:24:35.650Z,99611.00
2019-02-09T13:27:08.503Z,99616.00
2019-02-09T13:29:41.380Z,99615.00
2019-02-09T13:32:14.206Z,99613.00
2019-02-09T13:34:47.109Z,99608.00
2019-02-09T13:37:20.026Z,99626.00
2019-02-09T13:39:52.896Z,99618.00
2019-02-09T13:42:25.861Z,99616.00
2019-02-09T13:44:58.768Z,99622.00
2019-02-09T13:47:31.601Z,99615.00
2019-02-09T13:50:05.734Z,99616.00
2019-02-09T13:52:38.565Z,99623.00
2019-02-09T13:55:11.536Z,99631.00
2019-02-09T13:57:44.478Z,99619.00
2019-02-09T14:00:19.740Z,99632.00
2019-02-09T14:02:53.609Z,99624.00
2019-02-09T14:05:27.569Z,99636.00
2019-02-09T14:08:00.449Z,99638.00
2019-02-09T14:10:33.340Z,99649.00
2019-02-09T14:13:14.026Z,99641.00
2019-02-09T14:15:41.056Z,99650.00
2019-02-09T14:18:13.936Z,99649.00
2019-02-09T14:20:46.985Z,99640.00
2019-02-09T14:23:19.828Z,99659.00
2019-02-09T14:25:52.652Z,99657.00
2019-02-09T14:28:27.707Z,99650.00
2019-02-09T14:31:00.593Z,99647.00
2019-02-09T14:33:33.406Z,99660.00
2019-02-09T14:36:06.332Z,99666.00
2019-02-09T14:38:39.205Z,99668.00
2019-02-09T14:41:12.167Z,99655.00
2019-02-09T14:43:45.016Z,99651.00
2019-02-09T14:46:19.099Z,99658.00
2019-02-09T14:48:51.934Z,99662.00
2019-02-09T14:51:24.787Z,99662.00
2019-02-09T14:53:57.586Z,99657.00
2019-02-09T14:56:31.617Z,99666.00
2019-02-09T14:59:04.576Z,99661.00
2019-02-09T15:01:37.420Z,99671.00
2019-02-09T15:04:10.279Z,99668.00
2019-02-09T15:06:44.296Z,99678.00
2019-02-09T15:09:17.174Z,99675.00
2019-02-09T15:11:50.151Z,99678.00
2019-02-09T15:14:23.354Z,99677.00
2019-02-09T15:17:04.310Z,99679.00
2019-02-09T15:19:36.490Z,99689.00
2019-02-09T15:22:09.370Z,99694.00
2019-02-09T15:24:42.210Z,99694.00
2019-02-09T15:27:15.052Z,99699.00
2019-02-09T15:29:47.925Z,99693.00
2019-02-09T15:32:20.909Z,99696.00
2019-02-09T15:34:53.835Z,99704.00
2019-02-09T15:37:26.648Z,99694.00
2019-02-09T15:39:59.576Z,99683.00
2019-02-09T15:42:32.382Z,99687.00
2019-02-09T15:45:07.402Z,99690.00
2019-02-09T15:47:40.230Z,99696.00
2019-02-09T15:50:14.740Z,99692.00
2019-02-09T15:52:48.662Z,99702.00
2019-02-09T15:55:21.986Z,99705.00
2019-02-09T15:57:55.318Z,99693.00
2019-02-09T16:00:28.381Z,99700.00
2019-02-09T16:03:01.183Z,99691.00
2019-02-09T16:05:34.022Z,99699.00
2019-02-09T16:08:06.952Z,99690.00
2019-02-09T16:10:39.858Z,99696.00
2019-02-09T16:13:12.764Z,99710.00
2019-02-09T16:15:45.729Z,99710.00
2019-02-09T16:18:18.654Z,99712.00
2019-02-09T16:20:51.553Z,99711.00
2019-02-09T16:23:24.415Z,99716.00
2019-02-09T16:25:57.323Z,99725.00
2019-02-09T16:28:31.363Z,99722.00
2019-02-09T16:31:04.205Z,99717.00
2019-02-09T16:33:37.037Z,99716.00
2019-02-09T16:36:09.878Z,99713.00
2019-02-09T16:38:43.815Z,99718.00
2019-02-09T16:41:16.674Z,99724.00
2019-02-09T16:43:49.589Z,99705.00
2019-02-09T16:46:22.491Z,99715.00
2019-02-09T16:48:55.373Z,99719.00
2019-02-09T16:51:28.321Z,99717.00
2019-02-09T16:54:01.153Z,99722.00
2019-02-09T16:56:34.162Z,99731.00
2019-02-09T16:59:07.135Z,99729.00
2019-02-09T17:01:40.046Z,99728.00
2019-02-09T17:04:13.125Z,99737.00
2019-02-09T17:06:46.127Z,99738.00
2019-02-09T17:09:19.113Z,99744.00
2019-02-09T17:11:53.290Z,99740.00
2019-02-09T17:14:26.420Z,99751.00
2019-02-09T17:16:59.284Z,99750.00
2019-02-09T17:19:32.199Z,99746.00
2019-02-09T17:22:05.046Z,99749.00
2019-02-09T17:24:37.866Z,99741.00
2019-02-09T17:27:11.008Z,99742.00
2019-02-09T17:29:43.838Z,99742.00
2019-02-09T17:32:16.645Z,99740.00
2019-02-09T17:34:49.480Z,99760.00
2019-02-09T17:37:22.309Z,99751.00
2019-02-09T17:39:55.089Z,99759.00
2019-02-09T17:42:27.953Z,99766.00
2019-02-09T17:45:00.841Z,99757.00
2019-02-09T17:47:33.693Z,99764.00
2019-02-09T17:50:08.609Z,99751.00
2019-02-09T17:52:41.486Z,99763.00
2019-02-09T17:55:15.640Z,99767.00
2019-02-09T17:57:48.528Z,99762.00
2019-02-09T18:00:28.858Z,99753.00
2019-02-09T18:03:01.741Z,99751.00
2019-02-09T18:05:34.814Z,99745.00
2019-02-09T18:08:08.474Z,99743.00
2019-02-09T18:10:41.364Z,99737.00
2019-02-09T18:13:14.223Z,99744.00
2019-02-09T18:15:47.190Z,99751.00
2019-02-09T18:18:20.025Z,99745.00
2019-02-09T18:20:52.938Z,99744.00
2019-02-09T18:23:25.929Z,99746.00
2019-02-09T18:25:58.795Z,99754.00
2019-02-09T18:28:31.800Z,99756.00
2019-02-09T18:31:04.836Z,99750.00
2019-02-09T18:33:37.696Z,99747.00
2019-02-09T18:36:10.695Z,99753.00
2019-02-09T18:38:43.620Z,99748.00
2019-02-09T18:41:16.452Z,99759.00
2019-02-09T18:43:49.506Z,99755.00
2019-02-09T18:46:22.393Z,99751.00
2019-02-09T18:48:56.376Z,99757.00
2019-02-09T18:51:29.214Z,99755.00
2019-02-09T18:54:02.057Z,99755.00
2019-02-09T18:56:34.890Z,99759.00
2019-02-09T18:59:07.823Z,99759.00
2019-02-09T19:01:40.661Z,99751.00
2019-02-09T19:04:13.529Z,99749.00
2019-02-09T19:06:46.411Z,99754.00
2019-02-09T19:09:20.302Z,99761.00
2019-02-09T19:11:53.143Z,99752.00
2019-02-09T19:14:25.990Z,99751.00
2019-02-09T19:16:58.901Z,99758.00
2019-02-09T19:19:31.743Z,99755.00
2019-02-09T19:22:05.020Z,99760.00
2019-02-09T19:24:37.876Z,99762.00
2019-02-09T19:27:10.781Z,99754.00
2019-02-09T19:29:43.621Z,99759.00
2019-02-09T19:32:16.497Z,99764.00
2019-02-09T19:34:49.485Z,99756.00
2019-02-09T19:37:22.402Z,99759.00
2019-02-09T19:39:55.237Z,99760.00
2019-02-09T19:42:28.112Z,99768.00
2019-02-09T19:45:00.830Z,99775.00
2019-02-09T19:47:33.714Z,99780.00
2019-02-09T19:50:08.682Z,99788.00
2019-02-09T19:52:41.466Z,99780.00
2019-02-09T19:55:17.904Z,99779.00
2019-02-09T19:57:50.816Z,99781.00
2019-02-09T20:00:36.254Z,99776.00
2019-02-09T20:03:09.127Z,99783.00
2019-02-09T20:05:41.985Z,99776.00
2019-02-09T20:08:14.874Z,99774.00
2019-02-09T20:10:47.838Z,99783.00
2019-02-09T20:13:20.708Z,99778.00
2019-02-09T20:15:53.555Z,99782.00
2019-02-09T20:18:26.511Z,99779.00
2019-02-09T20:20:59.375Z,99781.00
2019-02-09T20:23:32.284Z,99774.00
2019-02-09T20:26:05.295Z,99772.00
2019-02-09T20:28:38.228Z,99776.00
2019-02-09T20:31:11.170Z,99775.00
2019-02-09T20:33:44.071Z,99778.00
2019-02-09T20:36:16.909Z,99769.00
2019-02-09T20:38:49.780Z,99768.00
2019-02-09T20:41:25.524Z,99771.00
2019-02-09T20:43:58.397Z,99770.00
2019-02-09T20:46:31.409Z,99753.00
2019-02-09T20:49:04.718Z,99753.00
2019-02-09T20:51:37.613Z,99760.00
2019-02-09T20:54:10.472Z,99754.00
2019-02-09T20:56:43.338Z,99755.00
2019-02-09T20:59:16.180Z,99741.00
2019-02-09T21:01:49.067Z,99750.00
2019-02-09T21:04:21.952Z,99750.00
2019-02-09T21:06:54.813Z,99746.00
2019-02-09T21:09:27.700Z,99763.00
2019-02-09T21:12:00.583Z,99754.00
2019-02-09T21:14:33.722Z,99740.00
2019-02-09T21:17:06.614Z,99745.00
2019-02-09T21:19:39.442Z,99750.00
2019-02-09T21:22:12.252Z,99757.00
2019-02-09T21:24:45.093Z,99754.00
2019-02-09T21:27:17.947Z,99752.00
2019-02-09T21:29:50.809Z,99751.00
2019-02-09T21:32:23.722Z,99752.00
2019-02-09T21:34:56.587Z,99749.00
2019-02-09T21:37:31.158Z,99748.00
2019-02-09T21:40:06.391Z,99741.00
2019-02-09T21:42:39.319Z,99735.00
2019-02-09T21:45:12.934Z,99733.00
2019-02-09T21:47:46.140Z,99735.00
2019-02-09T21:50:21.969Z,99727.00
2019-02-09T21:52:54.805Z,99724.00
2019-02-09T21:55:27.942Z,99711.00
2019-02-09T21:58:00.811Z,99718.00
2019-02-09T22:00:36.282Z,99717.00
2019-02-09T22:03:11.293Z,99713.00
2019-02-09T22:05:51.544Z,99715.00
2019-02-09T22:08:19.949Z,99716.00
2019-02-09T22:10:52.967Z,99724.00
2019-02-09T22:13:25.841Z,99718.00
2019-02-09T22:15:58.670Z,99719.00
2019-02-09T22:18:31.693Z,99724.00
2019-02-09T22:21:05.569Z,99710.00
2019-02-09T22:23:38.475Z,99716.00
2019-02-09T22:26:13.153Z,99726.00
2019-02-09T22:28:46.305Z,99727.00
2019-02-09T22:31:21.880Z,99720.00
2019-02-09T22:33:53.961Z,99713.00
2019-02-09T22:36:26.796Z,99711.00
2019-02-09T22:39:00.049Z,99696.00
2019-02-09T22:41:32.920Z,99705.00
2019-02-09T22:44:05.959Z,99701.00
2019-02-09T22:46:38.865Z,99699.00
2019-02-09T22:49:11.790Z,99688.00
2019-02-09T22:51:44.641Z,99691.00
2019-02-09T22:54:17.526Z,99688.00
2019-02-09T22:56:50.442Z,99682.00
2019-02-09T22:59:23.454Z,99684.00
2019-02-09T23:01:56.545Z,99686.00
2019-02-09T23:05:24.488Z,99692.00
2019-02-09T23:07:57.332Z,99676.00
2019-02-09T23:10:30.354Z,99679.00
2019-02-09T23:13:03.173Z,99670.00
2019-02-09T23:15:35.988Z,99671.00
2019-02-09T23:18:08.854Z,99667.00
2019-02-09T23:20:41.739Z,99655.00
2019-02-09T23:23:14.617Z,99655.00
2019-02-09T23:25:47.602Z,99647.00
2019-02-09T23:28:20.559Z,99666.00
2019-02-09T23:30:53.435Z,99657.00
2019-02-09T23:33:26.326Z,99661.00
2019-02-09T23:35:59.142Z,99655.00
2019-02-09T23:38:32.000Z,99647.00
2019-02-09T23:41:04.887Z,99651.00
2019-02-09T23:43:37.847Z,99645.00
2019-02-09T23:46:10.677Z,99638.00
2019-02-09T23:48:43.520Z,99622.00
2019-02-09T23:51:16.387Z,99616.00
2019-02-09T23:53:49.312Z,99617.00
2019-02-09T23:56:22.136Z,99604.00
2019-02-09T23:58:55.002Z,99593.00
